createdAt,value
2023-01-29T00:01:57.340Z,14.23
2023-01-29T00:06:07.135Z,15.77
2023-01-29T00:10:09.900Z,15.70
2023-01-29T00:14:11.972Z,16.83
2023-01-29T00:18:14.247Z,13.15
2023-01-29T00:22:15.918Z,16.02
2023-01-29T00:26:18.069Z,12.43
2023-01-29T00:30:23.156Z,14.77
2023-01-29T00:34:25.426Z,12.10
2023-01-29T00:38:27.178Z,16.20
2023-01-29T00:42:47.315Z,17.95
2023-01-29T00:46:49.117Z,14.85
2023-01-29T00:50:50.948Z,14.43
2023-01-29T00:54:58.282Z,11.18
2023-01-29T00:59:00.175Z,19.00
2023-01-29T01:03:07.885Z,16.45
2023-01-29T01:07:09.730Z,12.68
2023-01-29T01:11:11.495Z,16.73
2023-01-29T01:15:13.487Z,14.80
2023-01-29T01:19:16.141Z,14.57
2023-01-29T01:23:20.913Z,17.75
2023-01-29T01:27:22.767Z,14.95
2023-01-29T01:31:24.609Z,18.15
2023-01-29T01:35:26.501Z,13.30
2023-01-29T01:39:28.356Z,17.25
2023-01-29T01:43:48.877Z,17.42
2023-01-29T01:48:16.592Z,18.48
2023-01-29T01:52:20.139Z,16.15
2023-01-29T01:56:27.071Z,17.27
2023-01-29T02:00:28.985Z,15.63
2023-01-29T02:04:49.359Z,14.48
2023-01-29T02:09:21.926Z,14.93
2023-01-29T02:13:24.008Z,15.25
2023-01-29T02:17:25.841Z,14.50
2023-01-29T02:22:13.409Z,18.52
2023-01-29T02:26:34.134Z,13.40
2023-01-29T02:30:40.498Z,18.63
2023-01-29T02:35:13.046Z,14.60
2023-01-29T02:39:28.520Z,13.00
2023-01-29T02:43:37.399Z,13.63
2023-01-29T02:52:20.037Z,14.20
2023-01-29T02:56:28.865Z,15.30
2023-01-29T03:00:36.913Z,17.38
2023-01-29T03:04:46.609Z,17.45
2023-01-29T03:08:58.487Z,19.73
2023-01-29T03:13:12.856Z,16.65
2023-01-29T03:17:15.171Z,20.42
2023-01-29T03:21:41.450Z,18.50
2023-01-29T03:26:04.276Z,20.27
2023-01-29T03:30:28.655Z,20.52
2023-01-29T03:34:57.217Z,15.13
2023-01-29T03:39:02.371Z,20.92
2023-01-29T15:51:59.774Z,19.73
2023-01-29T15:56:01.993Z,24.35
2023-01-29T16:00:05.560Z,20.50
2023-01-29T16:04:22.556Z,21.90
2023-01-29T16:08:26.979Z,24.23
2023-01-29T16:12:28.834Z,25.80
2023-01-29T16:16:31.128Z,19.83
2023-01-29T16:20:45.028Z,21.42
2023-01-29T16:24:47.966Z,21.48
2023-01-29T16:28:49.869Z,22.77
2023-01-29T16:32:51.649Z,23.98
2023-01-29T16:36:54.914Z,22.48
2023-01-29T16:41:15.486Z,22.60
2023-01-29T16:45:28.841Z,23.90
2023-01-29T16:49:30.548Z,25.17
2023-01-29T16:53:32.920Z,25.60
2023-01-29T16:57:34.744Z,26.42
2023-01-29T17:01:36.768Z,30.60
2023-01-29T17:05:39.013Z,28.95
2023-01-29T17:09:41.123Z,29.88
2023-01-29T17:13:45.679Z,24.77
2023-01-29T17:17:49.107Z,30.63
2023-01-29T17:21:51.321Z,26.58
2023-01-29T17:25:54.006Z,27.75
2023-01-29T17:29:55.819Z,26.15
2023-01-29T17:33:57.647Z,23.05
2023-01-29T17:37:59.412Z,22.08
2023-01-29T17:42:01.619Z,32.72
2023-01-29T17:46:03.664Z,29.52
2023-01-29T17:50:23.143Z,23.48
2023-01-29T17:54:25.836Z,26.45
2023-01-29T17:58:27.950Z,23.08
2023-01-29T18:02:30.069Z,27.88
2023-01-29T18:06:32.115Z,29.75
2023-01-29T18:10:33.927Z,28.23
2023-01-29T18:14:35.767Z,24.52
2023-01-29T18:18:37.467Z,27.85
2023-01-29T18:22:39.225Z,20.17
2023-01-29T18:26:41.013Z,24.92
2023-01-29T18:30:44.490Z,25.40
2023-01-29T18:34:46.303Z,25.00
2023-01-29T18:38:48.050Z,25.58
2023-01-29T18:42:49.863Z,24.35
2023-01-29T18:46:51.571Z,28.63
2023-01-29T18:50:53.387Z,26.05
2023-01-29T18:54:55.215Z,21.77
2023-01-29T18:58:57.002Z,26.08
2023-01-29T19:02:58.863Z,21.50
2023-01-29T19:07:00.584Z,19.63
2023-01-29T19:11:05.580Z,23.90
2023-01-29T19:15:08.356Z,22.73
2023-01-29T19:19:10.159Z,24.88
2023-01-29T19:23:12.035Z,21.35
2023-01-29T19:27:13.795Z,22.73
2023-01-29T19:31:15.600Z,25.58
2023-01-29T19:35:17.700Z,21.05
2023-01-29T19:39:19.754Z,22.92
2023-01-29T19:43:21.686Z,25.38
2023-01-29T19:47:23.510Z,22.10
2023-01-29T19:51:27.642Z,19.40
2023-01-29T19:55:30.809Z,18.30
2023-01-29T19:59:32.902Z,17.85
2023-01-29T20:03:34.957Z,21.30
2023-01-29T20:07:36.735Z,20.42
2023-01-29T20:11:38.538Z,23.23
2023-01-29T20:15:47.514Z,23.00
2023-01-29T20:19:49.296Z,26.80
2023-01-29T20:23:51.625Z,18.42
2023-01-29T20:27:53.408Z,23.65
2023-01-29T20:31:55.277Z,18.77
2023-01-29T20:35:59.420Z,19.15
2023-01-29T20:40:01.358Z,17.80
2023-01-29T20:44:03.261Z,17.90
2023-01-29T20:48:05.221Z,20.80
2023-01-29T20:52:08.695Z,20.98
2023-01-29T20:56:11.193Z,21.63
2023-01-29T21:00:15.227Z,26.67
2023-01-29T21:04:17.360Z,22.77
2023-01-29T21:08:19.122Z,17.13
2023-01-29T21:12:21.364Z,20.17
2023-01-29T21:16:23.687Z,20.30
2023-01-29T21:20:25.504Z,20.25
2023-01-29T21:24:27.278Z,24.75
2023-01-29T21:28:29.296Z,18.55
2023-01-29T21:32:31.019Z,21.25
2023-01-29T21:36:34.130Z,19.95
2023-01-29T21:40:35.966Z,20.55
2023-01-29T21:44:38.106Z,17.38
2023-01-29T21:48:40.363Z,13.05
2023-01-29T21:52:42.136Z,15.98
2023-01-29T21:56:44.179Z,11.88
2023-01-29T22:00:48.952Z,14.55
2023-01-29T22:04:52.371Z,16.90
2023-01-29T22:08:54.299Z,17.23
2023-01-29T22:12:56.254Z,13.20
2023-01-29T22:16:58.126Z,23.27
2023-01-29T22:21:02.721Z,12.93
2023-01-29T22:25:05.517Z,13.23
2023-01-29T22:29:07.320Z,12.27
2023-01-29T22:33:10.550Z,10.93
2023-01-29T22:37:12.411Z,13.45
2023-01-29T22:41:14.670Z,7.65
2023-01-29T22:45:16.925Z,9.75
2023-01-29T22:49:19.074Z,8.98
2023-01-29T22:53:20.819Z,7.32
2023-01-29T22:57:22.597Z,11.43
2023-01-29T23:01:28.527Z,8.88
2023-01-29T23:05:30.300Z,9.32
2023-01-29T23:09:32.060Z,9.52
2023-01-29T23:13:33.881Z,15.60
2023-01-29T23:17:35.856Z,15.52
2023-01-29T23:21:37.937Z,9.93
2023-01-29T23:25:58.254Z,14.38
2023-01-29T23:29:59.941Z,11.68
2023-01-29T23:34:01.666Z,9.57
2023-01-29T23:38:03.404Z,17.05
2023-01-29T23:42:05.423Z,11.75
2023-01-29T23:46:07.611Z,9.82
2023-01-29T23:50:10.211Z,12.23
2023-01-29T23:54:12.023Z,11.05
2023-01-29T23:58:13.725Z,13.23
